Terminal Aerodrome Forecast
Issued by NWS

Home | Current Version | Previous Version | Text Only | Print | Product List | Glossary On
Versions: 1 2 3 4 5 6 7 8 9 10 11 12 13 14 15 16
202
FTUS43 KIND 091720
TAFLAF
TAF
KLAF 091720Z 0918/1018 29008KT P6SM BKN025
     FM100300 28006KT P6SM BKN035
     FM101500 25006KT P6SM SCT080
     FM101600 24006KT P6SM BKN100=

USA.gov is the U.S. government's official web portal to all federal, state and local government web resources and services.